Brooklet, Georgia
Current Conditions -  °F | °C
As of 1:35 AM on Friday 31 Oct 2014 (Local Time) from KTBR Reporting Station
Clear Clear  
Wind Chill: 49°   Ceiling: Unl
Heat Index: 49°   Visibility: 10mi
Dew Point: 49°   Wind: 0mph
Humidity: 100%   Direction: NA
Pressure: 29.92"   Gusts: NA
Location:  32.38°N, 81.66°W
Report Text: KTBR 310535Z AUTO 00000KT 10SM CLR 10/10 A2992 RMK AO2 T00970097
Loading
Personal Weather Stations






























Interactive Weather Map
Tropical Storm Tracking
New forecast layout! Learn more

10-Day Weather Forecast

Advertisements
Track Severe Weather on mobile